Time;durP1;ratioP1;P1;durP2;ratioP2;P2;SDS_P1;SDS_P2;PMS_P1;PMS_P2;Temp;Humidity;BMP_temperature;BMP_pressure;BME280_temperature;BME280_humidity;BME280_pressure;Samples;Min_cycle;Max_cycle;Signal;HPM_P1;HPM_P2
2022/01/29 00:00:29;;;;;;;;;;;3.60;99.90;;;;;;6102049;23;20014;-90
2022/01/29 00:02:54;;;;;;;;;;;3.60;99.90;;;;;;6141602;23;19912;-89
2022/01/29 00:05:20;;;;;;;;;;;3.60;99.90;;;;;;6116722;23;19934;-90
2022/01/29 00:07:45;;;;;;;;;;;3.50;99.90;;;;;;6143162;23;19916;-89
2022/01/29 00:10:12;;;;;;;;;;;3.50;99.90;;;;;;6116298;23;20353;-89
2022/01/29 00:12:37;;;;;;;;;;;3.50;99.90;;;;;;6143971;23;19909;-89
2022/01/29 00:15:04;;;;;;;;;;;3.50;99.90;;;;;;6117816;23;20353;-90
2022/01/29 00:17:29;;;;;;;;;;;3.50;99.90;;;;;;6141897;23;19913;-90
2022/01/29 00:19:55;;;;;;;;;;;3.50;99.90;;;;;;6118389;23;20353;-90
2022/01/29 00:22:23;;;;;;;;;;;3.50;99.90;;;;;;6143246;23;20470;-90
2022/01/29 00:24:48;;;;;;;;;;;3.50;99.90;;;;;;6142702;23;19919;-91
2022/01/29 00:27:15;;;;;;;;;;;3.50;99.90;;;;;;6143143;23;19916;-90
2022/01/29 00:29:42;;;;;;;;;;;3.50;99.90;;;;;;6117255;23;19933;-90
2022/01/29 00:32:09;;;;;;;;;;;3.50;99.90;;;;;;6117730;23;19913;-90
2022/01/29 00:34:35;;;;;;;;;;;3.50;99.90;;;;;;6117090;23;19909;-89
2022/01/29 00:37:00;;;;;;;;;;;3.50;99.90;;;;;;6116690;23;20052;-89
2022/01/29 00:39:26;;;;;;;;;;;3.50;99.90;;;;;;6116503;23;19917;-90
2022/01/29 00:41:52;;;;;;;;;;;3.50;99.90;;;;;;6116716;23;20341;-90
2022/01/29 00:44:17;;;;;;;;;;;3.50;99.90;;;;;;6117376;23;19913;-89
2022/01/29 00:46:44;;;;;;;;;;;3.50;99.90;;;;;;6116093;23;19995;-89
2022/01/29 00:49:10;;;;;;;;;;;3.50;99.90;;;;;;6117916;23;20043;-89
2022/01/29 00:51:36;;;;;;;;;;;3.50;99.90;;;;;;6116402;23;20604;-89
2022/01/29 00:54:01;;;;;;;;;;;3.50;99.90;;;;;;6116114;23;20381;-89
2022/01/29 00:56:27;;;;;;;;;;;3.50;99.90;;;;;;6117367;23;19919;-90
2022/01/29 00:58:52;;;;;;;;;;;3.50;99.90;;;;;;6117726;23;19919;-89
2022/01/29 01:01:18;;;;;;;;;;;3.60;99.90;;;;;;6116327;23;20230;-89
2022/01/29 01:03:43;;;;;;;;;;;3.50;99.90;;;;;;6116887;23;19909;-88
2022/01/29 01:06:08;;;;;;;;;;;3.50;99.90;;;;;;6117418;23;19913;-89
2022/01/29 01:08:34;;;;;;;;;;;3.50;99.90;;;;;;6142771;23;19920;-89
2022/01/29 01:11:00;;;;;;;;;;;3.50;99.90;;;;;;6116088;23;20735;-89
2022/01/29 01:13:25;;;;;;;;;;;3.50;99.90;;;;;;6116494;23;19920;-89
2022/01/29 01:15:51;;;;;;;;;;;3.50;99.90;;;;;;6115563;23;19919;-88
2022/01/29 01:18:16;;;;;;;;;;;3.50;99.90;;;;;;6143274;23;19924;-89
2022/01/29 01:20:42;;;;;;;;;;;3.50;99.90;;;;;;6116728;23;19932;-89
2022/01/29 01:23:07;;;;;;;;;;;3.50;99.90;;;;;;6117974;23;19913;-89
2022/01/29 01:25:33;;;;;;;;;;;3.50;99.90;;;;;;6115680;23;20693;-89
2022/01/29 01:27:58;;;;;;;;;;;3.50;99.90;;;;;;6142188;23;19913;-89
2022/01/29 01:30:33;;;;;;;;;;;3.50;99.90;;;;;;6115362;23;19919;-89
2022/01/29 01:33:01;;;;;;;;;;;3.50;99.90;;;;;;6116643;23;20239;-89
2022/01/29 01:35:35;;;;;;;;;;;3.50;99.90;;;;;;6142779;23;19908;-89
2022/01/29 01:40:36;;;;;;;;;;;3.50;99.90;;;;;;6141653;23;19909;-89
2022/01/29 01:43:02;;;;;;;;;;;3.50;99.90;;;;;;6115929;23;20428;-89
2022/01/29 01:45:28;;;;;;;;;;;3.50;99.90;;;;;;6142965;23;19920;-87
2022/01/29 01:47:54;;;;;;;;;;;3.50;99.90;;;;;;6102460;23;19967;-88
2022/01/29 01:50:21;;;;;;;;;;;3.50;99.90;;;;;;6115983;23;19912;-89
2022/01/29 01:52:47;;;;;;;;;;;3.50;99.90;;;;;;6116905;23;19971;-89
2022/01/29 01:55:13;;;;;;;;;;;3.50;99.90;;;;;;6116888;23;19913;-89
2022/01/29 01:57:38;;;;;;;;;;;3.50;99.90;;;;;;6117623;23;19920;-88
2022/01/29 02:00:04;;;;;;;;;;;3.40;99.90;;;;;;6116240;23;19923;-89
2022/01/29 02:02:30;;;;;;;;;;;3.50;99.90;;;;;;6115371;23;19955;-89
2022/01/29 02:04:55;;;;;;;;;;;3.50;99.90;;;;;;6116257;23;19916;-88
2022/01/29 02:07:21;;;;;;;;;;;3.50;99.90;;;;;;6142022;23;20019;-88
2022/01/29 02:09:46;;;;;;;;;;;3.50;99.90;;;;;;6116785;23;19912;-88
2022/01/29 02:12:12;;;;;;;;;;;3.50;99.90;;;;;;6117049;23;19941;-89
2022/01/29 02:14:39;;;;;;;;;;;3.50;99.90;;;;;;6117439;23;19939;-88
2022/01/29 02:17:05;;;;;;;;;;;3.50;99.90;;;;;;6116043;23;19913;-88
2022/01/29 02:19:31;;;;;;;;;;;3.50;99.90;;;;;;6116775;23;19916;-88
2022/01/29 02:21:57;;;;;;;;;;;3.50;99.90;;;;;;6116151;23;19931;-89
2022/01/29 02:24:23;;;;;;;;;;;3.50;99.90;;;;;;6115924;23;19913;-89
2022/01/29 02:26:48;;;;;;;;;;;3.50;99.90;;;;;;6116589;23;19971;-89
2022/01/29 02:29:14;;;;;;;;;;;3.40;99.90;;;;;;6117644;23;20031;-88
2022/01/29 02:31:50;;;;;;;;;;;3.40;99.90;;;;;;6143868;23;19968;-88
2022/01/29 02:34:16;;;;;;;;;;;3.40;99.90;;;;;;6117865;23;19920;-88
2022/01/29 02:36:43;;;;;;;;;;;3.40;99.90;;;;;;6118689;23;19909;-89
2022/01/29 02:39:09;;;;;;;;;;;3.50;99.90;;;;;;6118716;23;19920;-88
2022/01/29 02:41:38;;;;;;;;;;;3.50;99.90;;;;;;6142500;23;19925;-88
2022/01/29 02:44:05;;;;;;;;;;;3.50;99.90;;;;;;6117771;23;19920;-90
2022/01/29 02:46:48;;;;;;;;;;;3.50;99.90;;;;;;6117618;23;19917;-88
2022/01/29 02:49:16;;;;;;;;;;;3.40;99.90;;;;;;6117812;23;19919;-89
2022/01/29 02:51:43;;;;;;;;;;;3.30;99.90;;;;;;6117288;23;19915;-89
2022/01/29 02:54:08;;;;;;;;;;;3.20;99.90;;;;;;6117887;23;19916;-89
2022/01/29 02:56:34;;;;;;;;;;;3.00;99.90;;;;;;6117993;23;20595;-88
2022/01/29 02:58:59;;;;;;;;;;;2.90;99.90;;;;;;6118827;23;19915;-89
2022/01/29 03:01:25;;;;;;;;;;;2.90;99.90;;;;;;6142765;23;20305;-89
2022/01/29 03:03:50;;;;;;;;;;;2.80;99.90;;;;;;6117873;23;19916;-89
2022/01/29 03:06:16;;;;;;;;;;;2.80;99.90;;;;;;6116215;23;19913;-89
2022/01/29 03:08:41;;;;;;;;;;;2.80;99.90;;;;;;6116833;23;19909;-88
2022/01/29 03:11:07;;;;;;;;;;;2.80;99.90;;;;;;6117896;23;19912;-89
2022/01/29 03:13:35;;;;;;;;;;;2.80;99.90;;;;;;6118416;23;20017;-88
2022/01/29 03:16:00;;;;;;;;;;;2.80;99.90;;;;;;6117061;23;19924;-88
2022/01/29 03:18:26;;;;;;;;;;;2.80;99.90;;;;;;6117440;23;19912;-89
2022/01/29 03:20:51;;;;;;;;;;;2.80;99.90;;;;;;6116045;23;19988;-89
2022/01/29 03:23:17;;;;;;;;;;;2.80;99.90;;;;;;6116888;23;19912;-89
2022/01/29 03:25:42;;;;;;;;;;;2.80;99.90;;;;;;6142251;23;20023;-89
2022/01/29 03:28:08;;;;;;;;;;;2.80;99.90;;;;;;6144832;23;19916;-89
2022/01/29 03:30:33;;;;;;;;;;;2.80;99.90;;;;;;6143373;23;20002;-89
2022/01/29 03:33:02;;;;;;;;;;;2.80;99.90;;;;;;6101991;23;20039;-88
2022/01/29 03:35:27;;;;;;;;;;;2.80;99.90;;;;;;6117090;23;19913;-88
2022/01/29 03:37:53;;;;;;;;;;;2.80;99.90;;;;;;6118312;23;19912;-89
2022/01/29 03:40:18;;;;;;;;;;;2.90;99.90;;;;;;6116384;23;19936;-88
2022/01/29 03:42:56;;;;;;;;;;;2.90;99.90;;;;;;6117661;23;19924;-89
2022/01/29 03:45:22;;;;;;;;;;;2.80;99.90;;;;;;6112964;23;19912;-89
2022/01/29 03:47:50;;;;;;;;;;;2.80;99.90;;;;;;6144266;23;19924;-90
2022/01/29 03:50:16;;;;;;;;;;;2.80;99.90;;;;;;6117309;23;19912;-89
2022/01/29 03:52:41;;;;;;;;;;;2.90;99.90;;;;;;6117210;23;19983;-88
2022/01/29 03:55:07;;;;;;;;;;;2.80;99.90;;;;;;6117234;23;19940;-89
2022/01/29 03:57:35;;;;;;;;;;;2.80;99.90;;;;;;6144262;23;19913;-89
2022/01/29 04:00:02;;;;;;;;;;;2.90;99.90;;;;;;6118077;23;19923;-89
2022/01/29 04:02:27;;;;;;;;;;;2.80;99.90;;;;;;6116594;23;19924;-88
2022/01/29 04:04:53;;;;;;;;;;;2.80;99.90;;;;;;6118365;23;19920;-89
2022/01/29 04:07:18;;;;;;;;;;;2.80;99.90;;;;;;6116611;23;19917;-88
2022/01/29 04:09:48;;;;;;;;;;;2.80;99.90;;;;;;6118132;23;20008;-89
2022/01/29 04:12:14;;;;;;;;;;;2.80;99.90;;;;;;6117195;23;19913;-89
2022/01/29 04:14:39;;;;;;;;;;;2.90;99.90;;;;;;6117784;23;20024;-89
2022/01/29 04:17:05;;;;;;;;;;;2.90;99.90;;;;;;6117789;23;20775;-89
2022/01/29 04:19:31;;;;;;;;;;;2.90;99.90;;;;;;6117547;23;20309;-88
2022/01/29 04:22:00;;;;;;;;;;;2.90;99.90;;;;;;6143310;23;19913;-89
2022/01/29 04:24:25;;;;;;;;;;;2.90;99.90;;;;;;6116400;23;20248;-90
2022/01/29 04:26:51;;;;;;;;;;;2.90;99.90;;;;;;6143405;23;19917;-89
2022/01/29 04:29:17;;;;;;;;;;;3.00;99.90;;;;;;6117356;23;19908;-91
2022/01/29 04:31:59;;;;;;;;;;;3.00;99.90;;;;;;6116610;23;19931;-90
2022/01/29 04:34:25;;;;;;;;;;;2.90;99.90;;;;;;6116887;23;19928;-91
2022/01/29 04:36:51;;;;;;;;;;;3.00;99.90;;;;;;6118155;23;20348;-90
2022/01/29 04:39:16;;;;;;;;;;;3.00;99.90;;;;;;6144664;23;19924;-90
2022/01/29 04:41:42;;;;;;;;;;;3.00;99.90;;;;;;6116816;23;19924;-90
2022/01/29 04:44:09;;;;;;;;;;;3.00;99.90;;;;;;6143580;23;19912;-89
2022/01/29 04:46:34;;;;;;;;;;;3.00;99.90;;;;;;6126676;23;19920;-89
2022/01/29 04:49:00;;;;;;;;;;;3.10;99.90;;;;;;6116732;23;19913;-90
2022/01/29 04:51:25;;;;;;;;;;;3.10;99.90;;;;;;6116573;23;19913;-90
2022/01/29 04:53:51;;;;;;;;;;;3.10;99.90;;;;;;6117687;23;19913;-91
2022/01/29 04:56:17;;;;;;;;;;;3.10;99.90;;;;;;6116624;23;19916;-90
2022/01/29 04:58:42;;;;;;;;;;;3.10;99.90;;;;;;6117461;23;19913;-90
2022/01/29 05:01:08;;;;;;;;;;;3.10;99.90;;;;;;6143473;23;19935;-90
2022/01/29 05:03:34;;;;;;;;;;;3.10;99.90;;;;;;6117256;23;19912;-88
2022/01/29 05:05:59;;;;;;;;;;;3.00;99.90;;;;;;6143672;23;19917;-90
2022/01/29 05:08:25;;;;;;;;;;;3.10;99.90;;;;;;6103165;23;19963;-89
2022/01/29 05:10:51;;;;;;;;;;;3.10;99.90;;;;;;6126676;23;19924;-90
2022/01/29 05:13:21;;;;;;;;;;;3.10;99.90;;;;;;6116726;23;19976;-89
2022/01/29 05:16:11;;;;;;;;;;;3.10;99.90;;;;;;6143263;23;19987;-89
2022/01/29 05:27:02;;;;;;;;;;;3.10;99.90;;;;;;6086336;23;20004;-88
2022/01/29 05:29:31;;;;;;;;;;;3.10;99.90;;;;;;6116392;23;20333;-89
2022/01/29 05:31:58;;;;;;;;;;;3.10;99.90;;;;;;6116601;23;20141;-89
2022/01/29 05:34:23;;;;;;;;;;;3.10;99.90;;;;;;6117107;23;20251;-89
2022/01/29 05:36:49;;;;;;;;;;;3.10;99.90;;;;;;6116526;23;19909;-89
2022/01/29 05:39:15;;;;;;;;;;;3.10;99.90;;;;;;6116146;23;19987;-88
2022/01/29 05:41:41;;;;;;;;;;;3.10;99.90;;;;;;6116279;23;19944;-88
2022/01/29 05:44:07;;;;;;;;;;;3.10;99.90;;;;;;6118230;23;19995;-89
2022/01/29 05:46:32;;;;;;;;;;;3.10;99.90;;;;;;6116236;23;20536;-89
2022/01/29 05:49:00;;;;;;;;;;;3.10;99.90;;;;;;6116531;23;19923;-90
2022/01/29 05:51:30;;;;;;;;;;;3.10;99.90;;;;;;6117469;23;20257;-89
2022/01/29 05:53:56;;;;;;;;;;;3.10;99.90;;;;;;6117662;23;19916;-88
2022/01/29 05:56:22;;;;;;;;;;;3.10;99.90;;;;;;6142550;23;19980;-90
2022/01/29 05:58:49;;;;;;;;;;;3.10;99.90;;;;;;6141461;23;21178;-90
2022/01/29 06:01:15;;;;;;;;;;;3.10;99.90;;;;;;6142217;23;20019;-89
2022/01/29 06:03:40;;;;;;;;;;;3.20;99.90;;;;;;6119976;23;20340;-89
2022/01/29 06:06:06;;;;;;;;;;;3.30;99.90;;;;;;6117765;23;19917;-89
2022/01/29 06:08:31;;;;;;;;;;;3.20;99.90;;;;;;6144051;23;19921;-90
2022/01/29 06:10:57;;;;;;;;;;;3.20;99.90;;;;;;6116909;23;19919;-90
2022/01/29 06:13:22;;;;;;;;;;;3.20;99.90;;;;;;6118050;23;19912;-89
2022/01/29 06:15:49;;;;;;;;;;;3.20;99.90;;;;;;6117023;23;19999;-89
2022/01/29 06:18:18;;;;;;;;;;;3.30;99.90;;;;;;6117481;23;19917;-90
2022/01/29 06:20:47;;;;;;;;;;;3.20;99.90;;;;;;6118347;23;19916;-89
2022/01/29 06:23:13;;;;;;;;;;;3.30;99.90;;;;;;6117570;23;19948;-89
2022/01/29 06:25:43;;;;;;;;;;;3.30;99.90;;;;;;6117082;23;19916;-89
2022/01/29 06:28:08;;;;;;;;;;;3.30;99.90;;;;;;6116477;23;19917;-89
2022/01/29 06:30:34;;;;;;;;;;;3.30;99.90;;;;;;6117355;23;20269;-89
2022/01/29 06:33:07;;;;;;;;;;;3.30;99.90;;;;;;6142733;23;19983;-90
2022/01/29 06:35:33;;;;;;;;;;;3.30;99.90;;;;;;6117535;23;19915;-89
2022/01/29 06:37:58;;;;;;;;;;;3.30;99.90;;;;;;6143339;23;19913;-90
2022/01/29 06:40:24;;;;;;;;;;;3.30;99.90;;;;;;6088709;23;19924;-90
2022/01/29 06:43:05;;;;;;;;;;;3.30;99.90;;;;;;6113133;23;19921;-89
2022/01/29 06:45:53;;;;;;;;;;;;;;;;;;;;;
2022/01/29 06:48:44;;;;;;;;;;;3.30;99.90;;;;;;6075911;23;21514;-89
2022/01/29 06:51:24;;;;;;;;;;;3.40;99.90;;;;;;6052018;23;20452;-91
2022/01/29 06:54:11;;;;;;;;;;;3.40;99.90;;;;;;6093541;23;20321;-91
2022/01/29 06:56:50;;;;;;;;;;;3.40;99.90;;;;;;6086239;23;19915;-89
2022/01/29 06:59:16;;;;;;;;;;;3.40;99.90;;;;;;6114170;23;19917;-88
2022/01/29 07:01:41;;;;;;;;;;;3.40;99.90;;;;;;6117729;23;19920;-89
2022/01/29 07:04:07;;;;;;;;;;;3.40;99.90;;;;;;6118414;23;20333;-89
2022/01/29 07:06:32;;;;;;;;;;;3.40;99.90;;;;;;6116385;23;20285;-89
2022/01/29 07:09:01;;;;;;;;;;;3.40;99.90;;;;;;6090442;23;19919;-88
2022/01/29 07:11:26;;;;;;;;;;;3.40;99.90;;;;;;6116105;23;19975;-88
2022/01/29 07:14:01;;;;;;;;;;;3.50;99.90;;;;;;6142519;23;19967;-89
2022/01/29 07:16:27;;;;;;;;;;;3.50;99.90;;;;;;6117466;23;19920;-89
2022/01/29 07:18:55;;;;;;;;;;;3.50;99.90;;;;;;6070044;23;20353;-90
2022/01/29 07:21:23;;;;;;;;;;;3.50;99.90;;;;;;6070001;23;19924;-90
2022/01/29 07:23:49;;;;;;;;;;;3.50;99.90;;;;;;6062555;23;19919;-91
2022/01/29 07:26:28;;;;;;;;;;;3.50;99.90;;;;;;6064762;23;20007;-88
2022/01/29 07:31:56;;;;;;;;;;;3.50;99.90;;;;;;6112628;23;19916;-88
2022/01/29 07:37:48;;;;;;;;;;;3.50;99.90;;;;;;5994738;23;19913;-91
2022/01/29 07:40:44;;;;;;;;;;;3.50;99.90;;;;;;5955417;23;19914;-90
2022/01/29 07:47:33;;;;;;;;;;;;;;;;;;;;;
2022/01/29 07:50:04;;;;;;;;;;;3.50;99.90;;;;;;5845404;24;19929;-90
2022/01/29 07:53:20;;;;;;;;;;;3.60;99.90;;;;;;5856444;24;19949;-90
2022/01/29 07:55:50;;;;;;;;;;;3.60;99.90;;;;;;5892061;24;19919;-90
2022/01/29 07:58:24;;;;;;;;;;;3.60;99.90;;;;;;5853279;24;19916;-88
2022/01/29 08:01:22;;;;;;;;;;;3.70;99.90;;;;;;5879410;24;20351;-91
2022/01/29 08:03:48;;;;;;;;;;;3.70;99.90;;;;;;5885316;24;19920;-89
2022/01/29 08:06:14;;;;;;;;;;;3.70;99.90;;;;;;5925149;24;19943;-89
2022/01/29 08:08:48;;;;;;;;;;;3.70;99.90;;;;;;5925265;24;19986;-90
2022/01/29 08:11:25;;;;;;;;;;;3.70;99.90;;;;;;5886561;24;19939;-90
2022/01/29 08:13:51;;;;;;;;;;;3.70;99.90;;;;;;5908237;23;20345;-89
2022/01/29 08:16:17;;;;;;;;;;;3.70;99.90;;;;;;5993367;23;19966;-87
2022/01/29 08:18:43;;;;;;;;;;;3.80;99.90;;;;;;5999128;23;19946;-87
2022/01/29 08:21:12;;;;;;;;;;;3.80;99.90;;;;;;5976552;23;19985;-88
2022/01/29 08:23:38;;;;;;;;;;;3.80;99.90;;;;;;6016493;23;19914;-88
2022/01/29 08:26:03;;;;;;;;;;;3.90;99.90;;;;;;6062030;23;19915;-87
2022/01/29 08:28:29;;;;;;;;;;;3.90;99.90;;;;;;6142084;23;19995;-88
2022/01/29 08:30:54;;;;;;;;;;;3.90;99.90;;;;;;6114712;23;19936;-87
2022/01/29 08:33:23;;;;;;;;;;;4.00;99.90;;;;;;6116077;23;20507;-87
2022/01/29 08:35:49;;;;;;;;;;;4.00;99.90;;;;;;6141604;23;20518;-88
2022/01/29 08:38:17;;;;;;;;;;;4.00;99.90;;;;;;6115873;23;19932;-90
2022/01/29 08:40:45;;;;;;;;;;;4.00;99.90;;;;;;6081145;23;19913;-90
2022/01/29 08:43:11;;;;;;;;;;;4.00;99.90;;;;;;6076808;23;19932;-89
2022/01/29 08:45:53;;;;;;;;;;;4.00;99.90;;;;;;6101683;23;20318;-90
2022/01/29 08:48:21;;;;;;;;;;;4.00;99.90;;;;;;6070662;23;19919;-90
2022/01/29 08:50:52;;;;;;;;;;;4.10;99.90;;;;;;6087948;23;20336;-89
2022/01/29 08:53:21;;;;;;;;;;;4.10;99.90;;;;;;6080034;23;19923;-89
2022/01/29 08:55:48;;;;;;;;;;;4.10;99.90;;;;;;6113235;23;19920;-88
2022/01/29 08:58:14;;;;;;;;;;;4.20;99.90;;;;;;6115333;23;19916;-88
2022/01/29 09:00:46;;;;;;;;;;;4.20;99.90;;;;;;6141402;23;19928;-88
2022/01/29 09:03:15;;;;;;;;;;;4.30;99.90;;;;;;6127613;23;20202;-87
2022/01/29 09:05:41;;;;;;;;;;;4.30;99.90;;;;;;6126279;23;19913;-88
2022/01/29 09:08:09;;;;;;;;;;;4.30;99.90;;;;;;6141776;23;20182;-88
2022/01/29 09:10:35;;;;;;;;;;;4.40;99.90;;;;;;6104180;23;20314;-87
2022/01/29 09:13:02;;;;;;;;;;;4.40;99.90;;;;;;6116758;23;19997;-87
2022/01/29 09:15:27;;;;;;;;;;;4.40;99.90;;;;;;6141726;23;19917;-89
2022/01/29 09:17:53;;;;;;;;;;;4.50;99.90;;;;;;6116714;23;19913;-89
2022/01/29 09:20:18;;;;;;;;;;;4.50;99.90;;;;;;6116687;23;19983;-89
2022/01/29 09:22:44;;;;;;;;;;;4.50;99.90;;;;;;6116594;23;20611;-89
2022/01/29 09:25:09;;;;;;;;;;;4.60;99.90;;;;;;6116588;23;19919;-89
2022/01/29 09:27:35;;;;;;;;;;;4.60;99.90;;;;;;6116217;23;20011;-87
2022/01/29 09:30:01;;;;;;;;;;;4.60;99.90;;;;;;6143169;23;19988;-89
2022/01/29 09:32:26;;;;;;;;;;;4.70;99.90;;;;;;6141882;23;19909;-89
2022/01/29 09:34:52;;;;;;;;;;;4.70;99.90;;;;;;6117387;23;19967;-89
2022/01/29 09:37:17;;;;;;;;;;;4.70;99.90;;;;;;6142733;23;19912;-89
2022/01/29 09:39:43;;;;;;;;;;;4.70;99.90;;;;;;6117318;23;19912;-88
2022/01/29 09:42:11;;;;;;;;;;;4.80;99.90;;;;;;6141775;23;19971;-89
2022/01/29 09:44:37;;;;;;;;;;;4.80;99.90;;;;;;6104056;23;19912;-89
2022/01/29 09:47:03;;;;;;;;;;;4.80;99.90;;;;;;6114785;23;19991;-87
2022/01/29 09:49:38;;;;;;;;;;;4.80;99.90;;;;;;6090494;23;20133;-87
2022/01/29 09:52:03;;;;;;;;;;;4.90;99.90;;;;;;6140597;23;19909;-88
2022/01/29 09:54:29;;;;;;;;;;;4.90;99.90;;;;;;6102029;23;20296;-88
2022/01/29 09:56:58;;;;;;;;;;;5.00;99.90;;;;;;6098077;23;19909;-89
2022/01/29 09:59:23;;;;;;;;;;;5.00;99.90;;;;;;6139806;23;20038;-88
2022/01/29 10:01:50;;;;;;;;;;;5.00;99.90;;;;;;6084133;23;19935;-89
2022/01/29 10:04:19;;;;;;;;;;;5.00;99.90;;;;;;6097245;23;20007;-88
2022/01/29 10:07:09;;;;;;;;;;;5.10;99.90;;;;;;6097434;23;20380;-90
2022/01/29 10:09:40;;;;;;;;;;;5.10;99.90;;;;;;6141228;23;19912;-88
2022/01/29 10:12:21;;;;;;;;;;;5.20;99.90;;;;;;6112034;23;20425;-89
2022/01/29 10:14:48;;;;;;;;;;;5.30;99.90;;;;;;6086523;23;20300;-89
2022/01/29 10:17:33;;;;;;;;;;;5.30;99.90;;;;;;6073891;23;19913;-88
2022/01/29 10:20:09;;;;;;;;;;;5.30;99.90;;;;;;6125223;23;19918;-89
2022/01/29 10:22:35;;;;;;;;;;;5.30;99.90;;;;;;6080787;23;19913;-90
2022/01/29 10:25:24;;;;;;;;;;;5.40;99.90;;;;;;6138396;23;20404;-89
2022/01/29 10:28:08;;;;;;;;;;;5.50;99.90;;;;;;6112906;23;20027;-90
2022/01/29 10:33:58;;;;;;;;;;;5.50;99.90;;;;;;6059888;23;20025;-90
2022/01/29 10:36:26;;;;;;;;;;;5.60;99.90;;;;;;6053251;23;19910;-89
2022/01/29 10:38:57;;;;;;;;;;;5.60;99.90;;;;;;6072340;23;20352;-89
2022/01/29 10:41:30;;;;;;;;;;;5.60;99.90;;;;;;6079129;23;19987;-90
2022/01/29 10:44:34;;;;;;;;;;;5.70;99.90;;;;;;6106835;23;19916;-91
2022/01/29 10:47:00;;;;;;;;;;;5.70;99.90;;;;;;5974714;23;19942;-90
2022/01/29 10:49:30;;;;;;;;;;;5.80;99.90;;;;;;6025665;23;20065;-91
2022/01/29 10:52:20;;;;;;;;;;;5.80;99.90;;;;;;6009537;23;20335;-90
2022/01/29 11:02:14;;;;;;;;;;;6.00;99.90;;;;;;5823864;24;19916;-90
2022/01/29 11:05:04;;;;;;;;;;;;;;;;;;;;;
2022/01/29 11:08:25;;;;;;;;;;;;;;;;;;;;;
2022/01/29 11:10:56;;;;;;;;;;;6.10;99.90;;;;;;5869957;24;20731;-87
2022/01/29 11:13:25;;;;;;;;;;;6.20;99.90;;;;;;5936562;23;20427;-89
2022/01/29 11:15:55;;;;;;;;;;;6.30;99.90;;;;;;5952720;23;20308;-89
2022/01/29 11:18:21;;;;;;;;;;;6.30;99.90;;;;;;6027887;23;19967;-88
2022/01/29 11:20:47;;;;;;;;;;;6.30;99.90;;;;;;6053034;23;20330;-89
2022/01/29 11:23:25;;;;;;;;;;;6.30;99.90;;;;;;6089765;23;20278;-89
2022/01/29 11:25:59;;;;;;;;;;;6.40;99.90;;;;;;6055105;23;19968;-89
2022/01/29 11:28:29;;;;;;;;;;;6.40;99.90;;;;;;6073199;23;20461;-90
2022/01/29 11:31:29;;;;;;;;;;;6.50;99.90;;;;;;6067328;23;19980;-89
2022/01/29 11:34:07;;;;;;;;;;;6.50;99.90;;;;;;6075106;23;20245;-89
2022/01/29 11:37:04;;;;;;;;;;;6.50;99.90;;;;;;6068597;23;20006;-88
2022/01/29 11:39:36;;;;;;;;;;;6.50;99.90;;;;;;6077619;23;19936;-90
2022/01/29 11:42:22;;;;;;;;;;;6.60;99.90;;;;;;6072198;23;19917;-88
2022/01/29 11:44:48;;;;;;;;;;;6.60;99.90;;;;;;6111971;23;20318;-89
2022/01/29 11:47:26;;;;;;;;;;;6.60;99.90;;;;;;6118209;23;19917;-88
2022/01/29 11:49:52;;;;;;;;;;;6.60;99.90;;;;;;6119777;23;19916;-89
2022/01/29 11:52:21;;;;;;;;;;;6.70;99.90;;;;;;6117495;23;19913;-89
2022/01/29 11:54:58;;;;;;;;;;;6.70;99.90;;;;;;6086893;23;19916;-89
2022/01/29 11:57:23;;;;;;;;;;;6.70;99.90;;;;;;6115993;23;20435;-88
2022/01/29 11:59:49;;;;;;;;;;;6.70;99.90;;;;;;6118509;23;19908;-88
2022/01/29 12:02:14;;;;;;;;;;;6.70;99.90;;;;;;6144817;23;19912;-86
2022/01/29 12:04:54;;;;;;;;;;;6.80;99.90;;;;;;6117558;23;20269;-87
2022/01/29 12:07:44;;;;;;;;;;;6.70;99.90;;;;;;6100824;23;19923;-88
2022/01/29 12:10:12;;;;;;;;;;;6.80;99.90;;;;;;6100219;23;19979;-89
2022/01/29 12:13:17;;;;;;;;;;;6.80;99.90;;;;;;6074326;23;19951;-88
2022/01/29 12:15:54;;;;;;;;;;;6.80;99.90;;;;;;6098661;23;19913;-89
2022/01/29 12:18:53;;;;;;;;;;;;;;;;;;;;;
2022/01/29 12:21:22;;;;;;;;;;;6.90;99.90;;;;;;6054466;23;20244;-87
2022/01/29 12:23:50;;;;;;;;;;;7.00;99.90;;;;;;6088668;23;19917;-87
2022/01/29 12:27:08;;;;;;;;;;;6.90;99.90;;;;;;6102164;23;19920;-89
2022/01/29 12:29:33;;;;;;;;;;;7.00;99.90;;;;;;6054834;23;20546;-88
2022/01/29 12:35:07;;;;;;;;;;;7.10;99.90;;;;;;6026459;23;20399;-87
2022/01/29 12:45:54;;;;;;;;;;;7.10;99.90;;;;;;6114725;23;19924;-89
2022/01/29 12:48:20;;;;;;;;;;;7.10;99.90;;;;;;6118557;23;19917;-88
2022/01/29 12:50:48;;;;;;;;;;;7.10;99.90;;;;;;6117503;23;20025;-89
2022/01/29 12:53:15;;;;;;;;;;;7.20;99.90;;;;;;6118034;23;19991;-89
2022/01/29 12:55:57;;;;;;;;;;;7.20;99.90;;;;;;6129170;23;20318;-88
2022/01/29 12:58:34;;;;;;;;;;;7.30;99.90;;;;;;6104683;23;20333;-89
2022/01/29 13:01:01;;;;;;;;;;;7.30;99.90;;;;;;6142225;23;20592;-89
2022/01/29 13:03:30;;;;;;;;;;;7.40;99.90;;;;;;6092867;23;20129;-88
2022/01/29 13:06:06;;;;;;;;;;;7.40;99.90;;;;;;6061480;23;19913;-88
2022/01/29 13:08:31;;;;;;;;;;;7.50;99.90;;;;;;6102124;23;19962;-89
2022/01/29 13:11:17;;;;;;;;;;;7.50;99.90;;;;;;6071521;23;19909;-89
2022/01/29 13:13:42;;;;;;;;;;;7.50;99.90;;;;;;6133339;23;19912;-88
2022/01/29 13:16:09;;;;;;;;;;;7.60;99.90;;;;;;6112777;23;19971;-88
2022/01/29 13:18:40;;;;;;;;;;;7.60;99.90;;;;;;6083801;23;20344;-88
2022/01/29 13:21:08;;;;;;;;;;;7.60;99.90;;;;;;6099891;23;19953;-88
2022/01/29 13:23:34;;;;;;;;;;;7.70;99.90;;;;;;6116053;23;20342;-88
2022/01/29 13:26:17;;;;;;;;;;;7.70;99.90;;;;;;6116469;23;20413;-88
2022/01/29 13:28:47;;;;;;;;;;;7.80;99.90;;;;;;6117306;23;20543;-87
2022/01/29 13:31:13;;;;;;;;;;;7.80;99.90;;;;;;6141425;23;19909;-88
2022/01/29 13:33:38;;;;;;;;;;;7.90;99.90;;;;;;6089206;23;19920;-89
2022/01/29 13:36:04;;;;;;;;;;;7.90;99.90;;;;;;6088630;23;19947;-88
2022/01/29 13:38:40;;;;;;;;;;;7.90;99.90;;;;;;6127129;23;20385;-88
2022/01/29 13:41:05;;;;;;;;;;;7.90;99.90;;;;;;6114237;23;20336;-89
2022/01/29 13:43:34;;;;;;;;;;;7.90;99.90;;;;;;6127707;23;19917;-88
2022/01/29 13:46:04;;;;;;;;;;;8.00;99.90;;;;;;6098419;23;19987;-88
2022/01/29 13:48:44;;;;;;;;;;;8.00;99.90;;;;;;6131264;23;20403;-88
2022/01/29 13:51:11;;;;;;;;;;;8.10;99.90;;;;;;6086752;23;20321;-89
2022/01/29 13:53:47;;;;;;;;;;;8.20;99.90;;;;;;6090294;23;19913;-89
2022/01/29 13:56:13;;;;;;;;;;;8.30;99.90;;;;;;6116852;23;19994;-89
2022/01/29 13:58:53;;;;;;;;;;;8.30;99.90;;;;;;6145732;23;19913;-89
2022/01/29 14:01:37;;;;;;;;;;;8.40;99.90;;;;;;6143814;23;20356;-88
2022/01/29 14:04:03;;;;;;;;;;;8.40;99.90;;;;;;6144569;23;20546;-88
2022/01/29 14:06:33;;;;;;;;;;;8.40;99.90;;;;;;6118920;23;19920;-88
2022/01/29 14:09:11;;;;;;;;;;;8.50;99.90;;;;;;6119078;23;19944;-88
2022/01/29 14:11:56;;;;;;;;;;;8.40;99.90;;;;;;6118663;23;20005;-88
2022/01/29 14:14:22;;;;;;;;;;;8.40;99.90;;;;;;6119394;23;19971;-88
2022/01/29 14:16:48;;;;;;;;;;;8.50;99.90;;;;;;6118486;23;19985;-89
2022/01/29 14:19:16;;;;;;;;;;;8.50;99.90;;;;;;6143470;23;19952;-87
2022/01/29 14:21:41;;;;;;;;;;;8.50;99.90;;;;;;6116972;23;19912;-89
2022/01/29 14:24:07;;;;;;;;;;;8.50;99.90;;;;;;6144491;23;20648;-88
2022/01/29 14:26:33;;;;;;;;;;;8.50;99.90;;;;;;6119072;23;19996;-88
2022/01/29 14:28:58;;;;;;;;;;;8.50;99.90;;;;;;6119010;23;19924;-87
2022/01/29 14:31:24;;;;;;;;;;;8.50;99.90;;;;;;6118084;23;19916;-88
2022/01/29 14:33:52;;;;;;;;;;;8.50;99.90;;;;;;6121065;23;19912;-88
2022/01/29 14:36:17;;;;;;;;;;;8.50;99.90;;;;;;6118784;23;19916;-88
2022/01/29 14:38:43;;;;;;;;;;;8.50;99.90;;;;;;6145625;23;19975;-88
2022/01/29 14:41:08;;;;;;;;;;;8.40;99.90;;;;;;6142826;23;19916;-88
2022/01/29 14:43:34;;;;;;;;;;;8.40;99.90;;;;;;6118770;23;19975;-88
2022/01/29 14:46:01;;;;;;;;;;;8.40;99.90;;;;;;6143426;23;19931;-88
2022/01/29 14:48:26;;;;;;;;;;;8.40;99.90;;;;;;6119857;23;19983;-87
2022/01/29 14:50:52;;;;;;;;;;;8.40;99.90;;;;;;6143331;23;19913;-87
2022/01/29 14:53:22;;;;;;;;;;;8.40;99.90;;;;;;6118374;23;19919;-87
2022/01/29 14:55:48;;;;;;;;;;;8.30;99.90;;;;;;6117875;23;19909;-87
2022/01/29 14:58:13;;;;;;;;;;;8.30;99.90;;;;;;6105557;23;19915;-85
2022/01/29 15:00:40;;;;;;;;;;;8.30;99.90;;;;;;6115997;23;19908;-87
2022/01/29 15:03:06;;;;;;;;;;;8.30;99.90;;;;;;6119433;23;19913;-86
2022/01/29 15:05:37;;;;;;;;;;;8.20;99.90;;;;;;6103478;23;20318;-87
2022/01/29 15:08:04;;;;;;;;;;;8.20;99.90;;;;;;6101630;23;19948;-88
2022/01/29 15:10:40;;;;;;;;;;;8.20;99.90;;;;;;6100761;23;19969;-87
2022/01/29 15:13:08;;;;;;;;;;;8.20;99.90;;;;;;6105963;23;19913;-87
2022/01/29 15:15:36;;;;;;;;;;;8.20;99.90;;;;;;6102392;23;19927;-89
2022/01/29 15:18:04;;;;;;;;;;;8.30;99.90;;;;;;6127984;23;19971;-86
2022/01/29 15:20:33;;;;;;;;;;;8.30;99.90;;;;;;6116551;23;19940;-83
2022/01/29 16:04:55;;;;;;;;;;;8.80;99.90;;;;;;6148886;23;21149;31
2022/01/29 16:14:19;;;;;;;;;;;9.00;99.90;;;;;;6068750;23;19997;-94
2022/01/29 16:45:09;;;;;;;;;;;8.70;99.90;;;;;;5949226;23;19994;-83
2022/01/29 16:47:34;;;;;;;;;;;8.60;99.90;;;;;;6034111;23;20269;-84
2022/01/29 16:50:15;;;;;;;;;;;8.60;99.90;;;;;;6067818;23;19984;-90